Time;durP1;ratioP1;P1;durP2;ratioP2;P2;SDS_P1;SDS_P2;PMS_P1;PMS_P2;Temp;Humidity;BMP_temperature;BMP_pressure;BME280_temperature;BME280_humidity;BME280_pressure;Samples;Min_cycle;Max_cycle;Signal;HPM_P1;HPM_P2
2022/09/09 00:01:50;;;;;;;1.30;1.20;;;24.30;92.90;;;;;;4963731;28;20452;-54
2022/09/09 00:04:27;;;;;;;0.80;0.63;;;24.30;93.00;;;;;;4969518;28;20467;-51
2022/09/09 00:07:03;;;;;;;1.20;1.13;;;24.30;93.10;;;;;;4969600;28;20593;-55
2022/09/09 00:09:31;;;;;;;0.53;0.53;;;24.30;93.10;;;;;;4967552;28;20454;-54
2022/09/09 00:12:05;;;;;;;0.73;0.73;;;24.30;93.20;;;;;;4969183;28;20451;-53
2022/09/09 00:14:40;;;;;;;0.70;0.70;;;24.30;93.40;;;;;;4969419;28;20467;-51
2022/09/09 00:17:13;;;;;;;1.60;0.70;;;24.30;93.30;;;;;;4969352;28;20457;-55
2022/09/09 00:19:50;;;;;;;0.60;0.60;;;24.30;93.60;;;;;;4952760;28;20484;-55
2022/09/09 00:22:19;;;;;;;1.53;0.70;;;24.30;93.60;;;;;;4950035;28;20440;-54
2022/09/09 00:24:49;;;;;;;0.70;0.60;;;24.20;93.50;;;;;;4949985;29;20560;-54
2022/09/09 00:27:25;;;;;;;0.60;0.60;;;24.30;93.60;;;;;;4950256;28;20544;-54
2022/09/09 00:29:55;;;;;;;0.67;0.67;;;24.30;93.70;;;;;;4950051;28;20448;-57
2022/09/09 00:32:23;;;;;;;1.23;0.60;;;24.20;93.60;;;;;;4949917;28;20463;-59
2022/09/09 00:34:56;;;;;;;0.63;0.63;;;24.30;93.50;;;;;;4951595;28;20582;-58
2022/09/09 00:37:26;;;;;;;0.53;0.53;;;24.20;93.70;;;;;;4953168;28;20455;-58
2022/09/09 00:39:58;;;;;;;0.63;0.63;;;24.30;93.80;;;;;;4952967;29;20861;-58
2022/09/09 00:42:27;;;;;;;0.63;0.63;;;24.20;93.80;;;;;;4953009;28;20981;-58
2022/09/09 00:45:02;;;;;;;0.60;0.60;;;24.20;93.80;;;;;;4953320;28;20468;-59
2022/09/09 00:47:44;;;;;;;1.67;1.57;;;24.30;93.90;;;;;;4953025;28;20935;-58
2022/09/09 00:50:30;;;;;;;4.50;0.83;;;24.20;93.90;;;;;;4953038;29;20455;-57
2022/09/09 00:53:07;;;;;;;1.00;0.70;;;24.20;94.10;;;;;;4952880;29;20535;-58
2022/09/09 00:55:42;;;;;;;0.60;0.50;;;24.20;94.10;;;;;;4962230;28;20478;-57
2022/09/09 00:58:10;;;;;;;0.60;0.60;;;24.20;94.30;;;;;;4972202;28;20530;-57
2022/09/09 01:00:42;;;;;;;0.93;0.93;;;24.20;94.70;;;;;;4971873;28;20487;-52
2022/09/09 01:03:24;;;;;;;1.53;0.63;;;24.20;94.90;;;;;;4972068;28;20458;-56
2022/09/09 01:06:03;;;;;;;0.50;0.50;;;24.20;94.90;;;;;;4960118;28;20469;-56
2022/09/09 01:08:43;;;;;;;2.90;0.80;;;24.20;94.70;;;;;;4969912;28;20558;-55
2022/09/09 01:11:17;;;;;;;0.80;0.80;;;24.20;94.80;;;;;;4971759;28;20447;-56
2022/09/09 01:13:50;;;;;;;0.60;0.60;;;24.20;95.20;;;;;;4972043;28;20465;-54
2022/09/09 01:16:18;;;;;;;0.70;0.70;;;24.20;95.00;;;;;;4957921;28;20487;-56
2022/09/09 01:18:50;;;;;;;1.50;0.70;;;24.20;95.00;;;;;;4952604;28;20487;-55
2022/09/09 01:21:30;;;;;;;0.50;0.50;;;24.20;94.90;;;;;;4952228;28;20489;-55
2022/09/09 01:24:21;;;;;;;0.80;0.73;;;24.20;95.00;;;;;;4952569;28;20886;-56
2022/09/09 01:26:51;;;;;;;3.10;0.70;;;24.20;95.10;;;;;;4956029;28;20445;-58
2022/09/09 01:29:21;;;;;;;0.60;0.60;;;24.20;95.20;;;;;;4952546;28;20456;-59
2022/09/09 01:31:55;;;;;;;2.63;0.70;;;24.20;95.00;;;;;;4952274;28;20445;-60
2022/09/09 01:34:23;;;;;;;0.80;0.80;;;24.20;95.40;;;;;;4952249;28;20483;-60
2022/09/09 01:36:57;;;;;;;1.63;0.70;;;24.10;95.30;;;;;;4952206;29;20445;-60
2022/09/09 01:39:23;;;;;;;1.10;1.10;;;24.10;95.40;;;;;;4952419;28;20947;-58
2022/09/09 01:41:52;;;;;;;1.30;0.83;;;24.10;95.50;;;;;;4952067;28;20449;-58
2022/09/09 01:44:20;;;;;;;2.10;1.13;;;24.10;95.50;;;;;;4952175;28;20471;-56
2022/09/09 01:46:47;;;;;;;1.80;0.90;;;24.10;95.30;;;;;;4970189;28;20811;-60
2022/09/09 01:49:14;;;;;;;1.03;1.00;;;24.10;95.50;;;;;;4953176;28;20449;-57
2022/09/09 01:51:43;;;;;;;0.70;0.70;;;24.10;95.50;;;;;;4951851;28;20536;-60
2022/09/09 01:54:11;;;;;;;0.97;0.80;;;24.10;95.60;;;;;;4951950;28;20465;-58
2022/09/09 01:56:52;;;;;;;1.00;1.00;;;24.10;95.40;;;;;;4952271;28;20489;-58
2022/09/09 01:59:31;;;;;;;4.30;1.27;;;24.10;95.20;;;;;;4952018;29;20452;-58
2022/09/09 02:02:09;;;;;;;0.80;0.80;;;24.10;95.10;;;;;;4951723;28;20451;-59
2022/09/09 02:04:40;;;;;;;1.43;1.00;;;24.10;95.20;;;;;;4952449;28;20463;-60
2022/09/09 02:07:18;;;;;;;0.90;0.90;;;24.10;95.10;;;;;;4971092;28;20535;-60
2022/09/09 02:09:51;;;;;;;0.70;0.70;;;24.10;95.10;;;;;;4971020;28;20446;-60
2022/09/09 02:12:23;;;;;;;1.37;0.77;;;24.10;95.20;;;;;;4971006;28;20444;-58
2022/09/09 02:14:58;;;;;;;3.03;1.00;;;24.10;95.60;;;;;;4968514;28;20468;-58
2022/09/09 02:17:29;;;;;;;0.90;0.90;;;24.10;95.40;;;;;;4951694;28;20947;-59
2022/09/09 02:20:03;;;;;;;0.93;0.93;;;24.10;95.60;;;;;;4951620;28;20943;-58
2022/09/09 02:22:34;;;;;;;1.00;0.70;;;24.10;95.60;;;;;;4951374;29;20958;-58
2022/09/09 02:25:01;;;;;;;0.93;0.93;;;24.00;95.60;;;;;;4954747;28;20521;-60
2022/09/09 02:27:29;;;;;;;1.53;1.23;;;24.00;95.80;;;;;;4970807;28;20968;-60
2022/09/09 02:30:01;;;;;;;1.97;1.30;;;24.00;95.90;;;;;;4970615;28;21026;-58
2022/09/09 02:32:31;;;;;;;0.90;0.60;;;24.00;95.90;;;;;;4970652;28;20476;-58
2022/09/09 02:35:03;;;;;;;2.70;1.20;;;24.00;95.90;;;;;;4954042;28;20476;-60
2022/09/09 02:37:33;;;;;;;1.27;0.80;;;24.00;95.80;;;;;;4951449;28;20855;-59
2022/09/09 02:40:00;;;;;;;0.70;0.70;;;24.00;95.80;;;;;;4951308;28;20448;-58
2022/09/09 02:42:27;;;;;;;0.90;0.90;;;24.00;95.80;;;;;;4958788;28;20474;-56
2022/09/09 02:44:54;;;;;;;1.80;0.83;;;24.00;95.80;;;;;;4951190;28;20476;-60
2022/09/09 02:47:34;;;;;;;3.10;0.90;;;24.00;95.60;;;;;;4951219;28;20475;-60
2022/09/09 02:50:11;;;;;;;1.63;0.90;;;23.90;95.40;;;;;;4951154;28;20489;-59
2022/09/09 02:52:46;;;;;;;1.90;0.90;;;23.90;95.30;;;;;;4961130;28;20519;-59
2022/09/09 02:55:21;;;;;;;1.17;0.93;;;23.90;95.30;;;;;;4970350;28;20473;-60
2022/09/09 02:57:49;;;;;;;2.50;0.67;;;23.90;95.40;;;;;;4969793;28;20447;-58
2022/09/09 03:00:16;;;;;;;0.87;0.80;;;23.90;95.10;;;;;;4968359;28;20486;-58
2022/09/09 03:02:45;;;;;;;1.63;1.53;;;23.90;95.50;;;;;;4950926;28;20543;-58
2022/09/09 03:05:12;;;;;;;0.87;0.67;;;23.90;95.20;;;;;;4950917;28;20571;-59
2022/09/09 03:07:40;;;;;;;1.10;1.00;;;23.90;95.10;;;;;;4951038;28;20452;-58
2022/09/09 03:10:10;;;;;;;1.63;1.10;;;23.90;95.10;;;;;;4964128;28;20456;-60
2022/09/09 03:12:37;;;;;;;0.90;0.90;;;23.90;95.10;;;;;;4970024;28;20874;-60
2022/09/09 03:15:04;;;;;;;1.30;0.97;;;23.90;94.90;;;;;;4970056;28;21005;-58
2022/09/09 03:17:31;;;;;;;0.97;0.93;;;23.90;94.80;;;;;;4970067;28;20483;-58
2022/09/09 03:19:59;;;;;;;1.10;1.00;;;23.80;94.80;;;;;;4957837;28;20481;-57
2022/09/09 03:22:26;;;;;;;0.60;0.60;;;23.90;94.80;;;;;;4950593;28;20444;-60
2022/09/09 03:24:53;;;;;;;1.37;0.80;;;23.80;94.70;;;;;;4950679;28;20475;-60
2022/09/09 03:27:20;;;;;;;0.70;0.70;;;23.80;94.70;;;;;;4950704;28;20551;-60
2022/09/09 03:29:50;;;;;;;1.30;0.63;;;23.90;94.70;;;;;;4960713;28;20463;-58
2022/09/09 03:32:18;;;;;;;0.90;0.90;;;23.80;94.50;;;;;;4969762;28;20950;-60
2022/09/09 03:34:47;;;;;;;0.70;0.70;;;23.80;94.60;;;;;;5014137;23;20490;-64
2022/09/09 03:37:15;;;;;;;1.10;0.93;;;23.80;94.60;;;;;;4999645;28;20975;-64
2022/09/09 03:39:42;;;;;;;0.50;0.50;;;23.80;94.70;;;;;;4998611;28;20451;-65
2022/09/09 03:42:09;;;;;;;0.80;0.80;;;23.80;94.60;;;;;;4988990;28;20483;-65
2022/09/09 03:44:36;;;;;;;1.53;0.80;;;23.80;94.80;;;;;;4985463;28;20871;-65
2022/09/09 03:47:02;;;;;;;1.23;0.93;;;23.80;94.80;;;;;;4969430;28;20491;-65
2022/09/09 03:49:29;;;;;;;1.10;0.90;;;23.80;94.90;;;;;;4969801;28;20447;-65
2022/09/09 03:51:58;;;;;;;1.13;1.00;;;23.80;94.90;;;;;;4969358;28;20934;-65
2022/09/09 03:54:27;;;;;;;1.00;0.90;;;23.80;94.80;;;;;;4969545;28;20954;-65
2022/09/09 03:56:54;;;;;;;1.60;0.90;;;23.80;94.90;;;;;;4969418;28;21008;-65
2022/09/09 03:59:22;;;;;;;1.50;0.77;;;23.80;94.80;;;;;;4950309;29;20445;-65
2022/09/09 04:01:49;;;;;;;1.43;0.70;;;23.80;94.80;;;;;;4950075;29;20593;-65
2022/09/09 04:04:16;;;;;;;2.13;1.07;;;23.80;94.80;;;;;;4950199;28;20842;-64
2022/09/09 04:06:43;;;;;;;1.57;1.10;;;23.80;94.80;;;;;;4950191;29;20491;-65
2022/09/09 04:09:10;;;;;;;1.43;0.90;;;23.70;94.80;;;;;;4968856;28;20881;-65
2022/09/09 04:11:38;;;;;;;2.67;1.43;;;23.80;94.80;;;;;;4972581;28;20480;-65
2022/09/09 04:14:05;;;;;;;1.10;0.80;;;23.70;94.90;;;;;;4975933;28;20462;-66
2022/09/09 04:16:32;;;;;;;1.40;1.30;;;23.70;94.80;;;;;;4972244;28;20471;-66
2022/09/09 04:19:01;;;;;;;1.83;1.30;;;23.80;95.00;;;;;;4972652;28;20452;-66
2022/09/09 04:21:28;;;;;;;1.80;1.23;;;23.70;94.80;;;;;;4972434;28;20483;-67
2022/09/09 04:23:54;;;;;;;1.63;0.80;;;23.70;94.80;;;;;;4972411;28;20458;-66
2022/09/09 04:26:21;;;;;;;2.30;1.20;;;23.70;94.80;;;;;;4972427;28;20472;-66
2022/09/09 04:28:50;;;;;;;3.30;1.03;;;23.70;94.80;;;;;;4972680;28;20498;-66
2022/09/09 04:31:19;;;;;;;1.33;1.20;;;23.70;95.10;;;;;;4972201;28;20474;-66
2022/09/09 04:33:47;;;;;;;3.23;1.27;;;23.70;94.90;;;;;;4972261;28;20542;-68
2022/09/09 04:36:14;;;;;;;3.33;1.57;;;23.70;95.20;;;;;;4972175;28;20870;-66
2022/09/09 04:38:41;;;;;;;4.20;1.60;;;23.70;95.50;;;;;;4972464;28;20535;-64
2022/09/09 04:41:10;;;;;;;5.13;1.40;;;23.70;95.80;;;;;;4971884;28;20519;-62
2022/09/09 04:43:37;;;;;;;3.17;2.50;;;23.70;96.40;;;;;;4972205;28;20930;-63
2022/09/09 04:46:06;;;;;;;4.87;3.23;;;23.80;96.70;;;;;;4972186;28;20478;-61
2022/09/09 04:48:33;;;;;;;8.30;2.10;;;23.80;96.40;;;;;;4972114;28;20972;-64
2022/09/09 04:51:03;;;;;;;3.33;1.30;;;23.80;96.40;;;;;;4971454;28;20454;-64
2022/09/09 04:53:30;;;;;;;2.07;1.80;;;23.80;96.30;;;;;;4972052;28;20448;-63
2022/09/09 04:56:04;;;;;;;4.07;2.10;;;23.80;96.10;;;;;;4972002;28;20563;-64
2022/09/09 04:58:31;;;;;;;5.97;1.90;;;23.80;95.90;;;;;;4972287;28;20452;-64
2022/09/09 05:01:06;;;;;;;1.40;1.30;;;23.80;95.90;;;;;;4971782;28;20848;-63
2022/09/09 05:03:33;;;;;;;2.73;1.77;;;23.80;95.70;;;;;;4971997;28;20447;-63
2022/09/09 05:06:08;;;;;;;3.50;1.70;;;23.80;95.90;;;;;;4971866;28;20463;-65
2022/09/09 05:08:35;;;;;;;1.40;1.30;;;23.80;95.70;;;;;;4971950;28;20479;-62
2022/09/09 05:11:02;;;;;;;3.43;2.00;;;23.80;95.60;;;;;;4971712;28;20940;-63
2022/09/09 05:13:31;;;;;;;6.73;2.30;;;23.80;95.60;;;;;;4971960;28;20456;-63
2022/09/09 05:15:59;;;;;;;6.57;2.33;;;23.80;95.60;;;;;;4971749;28;20471;-64
2022/09/09 05:18:27;;;;;;;2.83;1.07;;;23.90;95.50;;;;;;4971806;28;20820;-63
2022/09/09 05:20:59;;;;;;;2.30;1.40;;;23.80;95.40;;;;;;4971052;28;20535;-64
2022/09/09 05:23:26;;;;;;;2.10;1.30;;;23.80;95.30;;;;;;4971705;28;20534;-64
2022/09/09 05:25:57;;;;;;;1.23;1.17;;;23.80;95.70;;;;;;4971480;28;20507;-63
2022/09/09 05:28:25;;;;;;;1.93;1.07;;;23.80;95.30;;;;;;4971689;28;20448;-63
2022/09/09 05:31:00;;;;;;;1.70;1.17;;;23.80;95.30;;;;;;4971443;28;20451;-64
2022/09/09 05:33:29;;;;;;;0.83;0.83;;;23.80;95.20;;;;;;4971553;28;20448;-65
2022/09/09 05:35:59;;;;;;;2.43;0.90;;;23.80;95.50;;;;;;4971302;28;20480;-64
2022/09/09 05:38:26;;;;;;;2.97;0.80;;;23.80;95.10;;;;;;4971587;28;20547;-63
2022/09/09 05:40:53;;;;;;;1.63;1.53;;;23.80;95.20;;;;;;4971350;28;21003;-64
2022/09/09 05:43:20;;;;;;;4.30;1.10;;;23.80;95.50;;;;;;4971327;28;20930;-64
2022/09/09 05:45:48;;;;;;;1.63;1.33;;;23.80;95.20;;;;;;4971381;28;20471;-64
2022/09/09 05:48:15;;;;;;;1.50;0.80;;;23.80;95.10;;;;;;4971342;28;20455;-63
2022/09/09 05:50:45;;;;;;;1.07;0.87;;;23.80;95.00;;;;;;4971193;28;20459;-63
2022/09/09 05:53:12;;;;;;;2.40;1.27;;;23.80;95.00;;;;;;4971244;28;20487;-64
2022/09/09 05:55:38;;;;;;;1.37;1.17;;;23.80;95.00;;;;;;4971206;28;20511;-63
2022/09/09 05:58:05;;;;;;;1.50;1.20;;;23.80;95.10;;;;;;4971152;28;21005;-63
2022/09/09 06:00:32;;;;;;;2.33;1.27;;;23.80;95.10;;;;;;4971076;28;20881;-65
2022/09/09 06:02:59;;;;;;;1.63;1.00;;;23.70;95.40;;;;;;4970935;28;20510;-64
2022/09/09 06:05:27;;;;;;;1.57;1.03;;;23.80;95.70;;;;;;4970964;28;20472;-64
2022/09/09 06:07:55;;;;;;;3.30;1.73;;;23.70;95.20;;;;;;4971149;28;20456;-65
2022/09/09 06:10:22;;;;;;;1.80;1.07;;;23.70;95.20;;;;;;4970737;28;20927;-65
2022/09/09 06:12:49;;;;;;;2.30;1.23;;;23.70;95.30;;;;;;4970870;28;20444;-63
2022/09/09 06:15:17;;;;;;;1.87;1.73;;;23.70;95.30;;;;;;4970789;28;20475;-64
2022/09/09 06:17:45;;;;;;;3.90;1.67;;;23.70;95.30;;;;;;4970804;28;20494;-64
2022/09/09 06:20:13;;;;;;;1.20;1.10;;;23.70;95.20;;;;;;4970782;28;20456;-63
2022/09/09 06:22:41;;;;;;;2.50;1.00;;;23.70;95.20;;;;;;4970387;28;20488;-64
2022/09/09 06:25:10;;;;;;;1.20;0.80;;;23.70;95.20;;;;;;4970526;28;20471;-65
2022/09/09 06:27:37;;;;;;;1.80;1.70;;;23.70;95.00;;;;;;4970679;28;20454;-63
2022/09/09 06:30:05;;;;;;;2.33;1.27;;;23.60;95.10;;;;;;4970666;28;20546;-64
2022/09/09 06:32:36;;;;;;;2.30;1.20;;;23.70;95.10;;;;;;4969455;28;20450;-63
2022/09/09 06:35:04;;;;;;;1.73;1.03;;;23.60;94.90;;;;;;4970476;28;20480;-63
2022/09/09 06:37:30;;;;;;;1.43;1.30;;;23.60;95.00;;;;;;4970512;28;20539;-64
2022/09/09 06:39:57;;;;;;;4.53;1.30;;;23.60;94.90;;;;;;4970403;28;20509;-65
2022/09/09 06:42:25;;;;;;;5.37;1.40;;;23.60;94.80;;;;;;4970199;28;20491;-63
2022/09/09 06:44:53;;;;;;;2.70;1.67;;;23.60;95.00;;;;;;4970547;28;20519;-64
2022/09/09 06:47:20;;;;;;;2.93;1.60;;;23.60;94.70;;;;;;4970403;28;20523;-64
2022/09/09 06:49:46;;;;;;;3.73;1.30;;;23.60;94.80;;;;;;4970590;28;20475;-64
2022/09/09 06:52:13;;;;;;;2.00;1.10;;;23.60;94.70;;;;;;4970093;28;20490;-65
2022/09/09 06:54:40;;;;;;;1.90;0.87;;;23.60;94.60;;;;;;4970276;28;20542;-64
2022/09/09 06:57:07;;;;;;;2.90;1.30;;;23.50;94.50;;;;;;4970328;28;20454;-65
2022/09/09 06:59:36;;;;;;;3.03;2.20;;;23.50;94.50;;;;;;4970273;28;20513;-64
2022/09/09 07:02:02;;;;;;;1.20;1.10;;;23.50;94.50;;;;;;4969952;28;20574;-65
2022/09/09 07:04:29;;;;;;;1.73;1.47;;;23.50;94.20;;;;;;4970202;28;20467;-65
2022/09/09 07:06:56;;;;;;;1.00;1.00;;;23.50;94.10;;;;;;4970274;28;20891;-66
2022/09/09 07:09:23;;;;;;;1.57;1.47;;;23.50;94.00;;;;;;4970228;28;20543;-63
2022/09/09 07:11:52;;;;;;;3.10;1.50;;;23.60;94.00;;;;;;4969919;28;21010;-64
2022/09/09 07:14:20;;;;;;;1.67;1.57;;;23.50;93.90;;;;;;4969972;28;20447;-65
2022/09/09 07:16:48;;;;;;;2.97;1.03;;;23.50;93.80;;;;;;4970028;28;20455;-64
2022/09/09 07:19:16;;;;;;;3.77;1.93;;;23.50;93.80;;;;;;4970002;28;20490;-63
2022/09/09 07:21:43;;;;;;;1.33;1.20;;;23.50;93.60;;;;;;4969696;28;20487;-65
2022/09/09 07:24:11;;;;;;;4.73;1.47;;;23.50;93.50;;;;;;4970116;28;20487;-64
2022/09/09 07:26:39;;;;;;;1.03;1.00;;;23.50;93.70;;;;;;4969981;28;20476;-64
2022/09/09 07:29:06;;;;;;;4.00;1.43;;;23.50;93.50;;;;;;4969874;28;20448;-64
2022/09/09 07:31:35;;;;;;;4.43;2.40;;;23.50;93.50;;;;;;4969685;28;20466;-64
2022/09/09 07:34:04;;;;;;;2.77;1.40;;;23.50;93.40;;;;;;4969845;28;20459;-64
2022/09/09 07:36:33;;;;;;;2.87;1.77;;;23.50;93.40;;;;;;4969764;28;20476;-65
2022/09/09 07:39:02;;;;;;;1.27;1.00;;;23.50;93.40;;;;;;4969910;28;20452;-63
2022/09/09 07:41:33;;;;;;;1.03;1.03;;;23.40;93.20;;;;;;4969725;28;20456;-64
2022/09/09 07:44:04;;;;;;;2.10;1.40;;;23.50;93.20;;;;;;4971763;28;20861;-64
2022/09/09 07:46:31;;;;;;;1.97;1.30;;;23.50;93.10;;;;;;4973083;28;20471;-65
2022/09/09 07:48:58;;;;;;;7.23;1.40;;;23.40;92.80;;;;;;4973203;28;20554;-63
2022/09/09 07:51:29;;;;;;;1.90;1.30;;;23.40;92.70;;;;;;4972848;28;20487;-65
2022/09/09 07:53:58;;;;;;;3.27;1.00;;;23.40;92.40;;;;;;4972996;28;20458;-65
2022/09/09 07:56:26;;;;;;;2.60;1.50;;;23.40;92.50;;;;;;4972900;28;20463;-65
2022/09/09 07:58:54;;;;;;;0.77;0.73;;;23.40;92.10;;;;;;4973090;28;20539;-64
2022/09/09 08:01:24;;;;;;;1.60;1.50;;;23.40;91.80;;;;;;4972718;28;20454;-64
2022/09/09 08:03:58;;;;;;;1.10;1.00;;;23.30;91.10;;;;;;4972847;28;20500;-63
2022/09/09 08:06:28;;;;;;;2.00;1.30;;;23.40;91.30;;;;;;4972806;28;20471;-62
2022/09/09 08:08:55;;;;;;;4.40;2.33;;;23.40;91.20;;;;;;4972935;28;20450;-63
2022/09/09 08:11:24;;;;;;;1.07;1.00;;;23.40;91.20;;;;;;4972550;28;20820;-64
2022/09/09 08:13:52;;;;;;;1.33;1.23;;;23.40;91.10;;;;;;4972881;28;20447;-63
2022/09/09 08:16:21;;;;;;;2.50;1.20;;;23.40;90.90;;;;;;4972695;28;20468;-63
2022/09/09 08:18:49;;;;;;;1.40;1.07;;;23.40;90.50;;;;;;4972662;28;20935;-65
2022/09/09 08:21:18;;;;;;;1.40;1.23;;;23.40;90.30;;;;;;4972427;28;20509;-64
2022/09/09 08:23:48;;;;;;;1.10;1.00;;;23.40;90.60;;;;;;4972586;28;20495;-65
2022/09/09 08:26:16;;;;;;;0.83;0.77;;;23.40;90.30;;;;;;4972618;28;20558;-64
2022/09/09 08:28:44;;;;;;;1.23;1.03;;;23.30;89.40;;;;;;4972583;28;20543;-64
2022/09/09 08:31:13;;;;;;;2.30;0.93;;;23.30;89.60;;;;;;4972284;28;20860;-63
2022/09/09 08:33:41;;;;;;;1.97;1.10;;;23.40;90.10;;;;;;4972480;28;20958;-64
2022/09/09 08:36:10;;;;;;;5.60;2.33;;;23.40;89.20;;;;;;4972306;28;20839;-62
2022/09/09 08:38:38;;;;;;;1.43;0.87;;;23.40;88.70;;;;;;4972367;28;20462;-62
2022/09/09 08:41:33;;;;;;;1.13;1.10;;;23.30;88.00;;;;;;4972145;28;20455;-64
2022/09/09 08:44:06;;;;;;;1.30;1.20;;;23.30;88.10;;;;;;4972273;28;20490;-65
2022/09/09 08:46:40;;;;;;;2.97;1.27;;;23.40;88.10;;;;;;4972301;28;20474;-63
2022/09/09 08:49:20;;;;;;;1.83;1.73;;;23.30;87.70;;;;;;4972346;28;20459;-64
2022/09/09 08:51:49;;;;;;;1.80;0.80;;;23.30;86.80;;;;;;4971962;28;20452;-64
2022/09/09 08:54:16;;;;;;;3.80;1.57;;;23.30;86.20;;;;;;4971996;28;20869;-63
2022/09/09 08:56:45;;;;;;;1.20;1.03;;;23.30;85.90;;;;;;4971603;28;20970;-64
2022/09/09 08:59:17;;;;;;;2.57;1.23;;;23.30;86.10;;;;;;4972018;28;20448;-63
2022/09/09 09:01:58;;;;;;;2.10;0.90;;;23.30;84.70;;;;;;4971927;28;20458;-64
2022/09/09 09:04:56;;;;;;;1.10;1.03;;;23.30;84.70;;;;;;4972098;28;20444;-63
2022/09/09 09:07:34;;;;;;;1.90;0.87;;;23.30;84.60;;;;;;4972054;28;20454;-63
2022/09/09 09:10:08;;;;;;;1.83;1.23;;;23.30;84.30;;;;;;4972062;28;20439;-64
2022/09/09 09:12:42;;;;;;;2.77;1.00;;;23.30;84.60;;;;;;4971714;28;20436;-63
2022/09/09 09:15:16;;;;;;;1.03;0.93;;;23.30;84.60;;;;;;4971860;28;20463;-62
2022/09/09 09:17:43;;;;;;;3.67;2.20;;;23.30;84.70;;;;;;4971945;28;20474;-64
2022/09/09 09:20:14;;;;;;;1.77;1.57;;;23.30;84.80;;;;;;4971856;28;20447;-64
2022/09/09 09:22:50;;;;;;;3.13;1.10;;;23.30;84.50;;;;;;4971598;28;21014;-63
2022/09/09 09:25:20;;;;;;;5.73;2.40;;;23.30;84.50;;;;;;4971681;28;20516;-64
2022/09/09 09:27:58;;;;;;;1.10;1.00;;;23.30;84.60;;;;;;4971630;28;20553;-63
2022/09/09 09:30:30;;;;;;;2.70;1.03;;;23.30;83.70;;;;;;4971512;28;20961;-63
2022/09/09 09:33:02;;;;;;;1.83;1.10;;;23.30;83.50;;;;;;4971560;28;20527;-63
2022/09/09 09:35:29;;;;;;;3.07;1.50;;;23.30;83.40;;;;;;4971925;28;20479;-61
2022/09/09 09:37:56;;;;;;;2.73;1.23;;;23.30;83.10;;;;;;4971464;28;20455;-58
2022/09/09 09:40:24;;;;;;;1.13;0.70;;;23.30;82.50;;;;;;4971281;28;20458;-61
2022/09/09 09:42:55;;;;;;;1.30;1.30;;;23.30;83.10;;;;;;4971284;28;21216;-56
2022/09/09 09:45:33;;;;;;;2.10;1.27;;;23.30;83.50;;;;;;4971275;28;20503;-58
2022/09/09 09:48:02;;;;;;;1.17;1.17;;;23.30;83.20;;;;;;4971365;28;20509;-58
2022/09/09 09:50:29;;;;;;;1.20;1.10;;;23.30;82.80;;;;;;4971255;28;20460;-62
2022/09/09 09:52:57;;;;;;;0.93;0.70;;;23.30;82.20;;;;;;4971320;28;20935;-60
2022/09/09 09:55:25;;;;;;;1.20;1.10;;;23.30;81.80;;;;;;4971156;28;20555;-57
2022/09/09 09:57:54;;;;;;;1.17;0.90;;;23.30;81.00;;;;;;4970663;28;20509;-58
2022/09/09 10:00:23;;;;;;;0.80;0.80;;;23.30;81.10;;;;;;4965793;28;20448;-57
2022/09/09 10:02:52;;;;;;;1.93;1.03;;;23.30;80.70;;;;;;4963386;28;20486;-64
2022/09/09 10:05:21;;;;;;;1.57;1.47;;;23.30;81.60;;;;;;4970762;28;20468;-63
2022/09/09 10:08:01;;;;;;;2.90;1.17;;;23.30;82.00;;;;;;4970026;28;20444;-64
2022/09/09 10:10:38;;;;;;;1.33;0.77;;;23.30;81.10;;;;;;4970961;28;20448;-61
2022/09/09 10:13:12;;;;;;;1.30;0.83;;;23.30;80.30;;;;;;4970919;28;20454;-63
2022/09/09 10:15:47;;;;;;;1.83;1.03;;;23.30;80.70;;;;;;4970878;28;21052;-61
2022/09/09 10:18:36;;;;;;;1.20;1.10;;;23.30;80.50;;;;;;4970968;28;20530;-62
2022/09/09 10:21:16;;;;;;;3.20;1.20;;;23.40;80.30;;;;;;4969954;28;20452;-64
2022/09/09 10:23:59;;;;;;;1.20;1.10;;;23.40;80.20;;;;;;4970503;28;20893;-65
2022/09/09 10:26:39;;;;;;;1.20;0.80;;;23.40;80.90;;;;;;4970679;28;20563;-63
2022/09/09 10:29:28;;;;;;;1.33;1.03;;;23.40;80.50;;;;;;4969965;28;20451;-62
2022/09/09 10:32:07;;;;;;;2.43;1.63;;;23.40;81.10;;;;;;4970549;28;20538;-60
2022/09/09 10:34:56;;;;;;;1.03;0.80;;;23.50;81.30;;;;;;4970537;28;20479;-61
2022/09/09 10:37:38;;;;;;;2.63;1.23;;;23.50;81.20;;;;;;4970069;28;20448;-59
2022/09/09 10:40:24;;;;;;;3.03;1.07;;;23.50;81.10;;;;;;4970390;28;20542;-60
2022/09/09 10:42:51;;;;;;;1.47;0.87;;;23.50;81.00;;;;;;4970251;28;21074;-59
2022/09/09 10:45:24;;;;;;;1.70;1.10;;;23.50;80.90;;;;;;4970555;28;20562;-59
2022/09/09 10:48:11;;;;;;;2.17;1.23;;;23.50;80.90;;;;;;4970611;28;20531;-61
2022/09/09 10:50:51;;;;;;;1.80;1.07;;;23.50;80.60;;;;;;4970299;28;20531;-61
2022/09/09 10:53:27;;;;;;;2.23;1.13;;;23.50;80.20;;;;;;4970351;28;20455;-59
2022/09/09 10:55:59;;;;;;;1.70;1.37;;;23.50;80.40;;;;;;4970229;28;20506;-60
2022/09/09 10:58:31;;;;;;;1.30;0.60;;;23.50;80.40;;;;;;4970503;28;20456;-59
2022/09/09 11:01:07;;;;;;;1.20;0.90;;;23.50;80.30;;;;;;4970193;28;20444;-59
2022/09/09 11:03:36;;;;;;;1.17;0.87;;;23.50;80.50;;;;;;4970108;28;20491;-60
2022/09/09 11:06:06;;;;;;;1.63;1.10;;;23.50;80.70;;;;;;4970366;28;20559;-60
2022/09/09 11:08:36;;;;;;;0.70;0.70;;;23.50;80.50;;;;;;4970293;28;20452;-58
2022/09/09 11:11:05;;;;;;;1.23;0.93;;;23.50;80.50;;;;;;4969928;28;20450;-61
2022/09/09 11:13:40;;;;;;;1.27;1.17;;;23.50;79.70;;;;;;4970282;28;20452;-60
2022/09/09 11:16:20;;;;;;;1.20;0.90;;;23.50;79.80;;;;;;4970247;28;20826;-59
2022/09/09 11:18:48;;;;;;;0.90;0.80;;;23.40;79.40;;;;;;4969689;28;20444;-60
2022/09/09 11:21:22;;;;;;;1.17;0.80;;;23.40;79.30;;;;;;4969907;28;20452;-61
2022/09/09 11:23:54;;;;;;;1.03;0.80;;;23.40;79.70;;;;;;4969974;28;20490;-61
2022/09/09 11:26:28;;;;;;;1.37;1.27;;;23.40;80.40;;;;;;4969962;28;20998;-59
2022/09/09 11:29:09;;;;;;;0.80;0.80;;;23.40;81.60;;;;;;4969951;28;20452;-59
2022/09/09 11:31:46;;;;;;;1.63;0.90;;;23.40;83.00;;;;;;4969879;28;20444;-60
2022/09/09 11:34:25;;;;;;;0.70;0.70;;;23.40;84.50;;;;;;4970142;28;21007;-59
2022/09/09 11:37:22;;;;;;;0.90;0.73;;;23.40;84.10;;;;;;4969907;28;20447;-61
2022/09/09 11:40:14;;;;;;;0.80;0.60;;;23.40;84.20;;;;;;4969891;28;20809;-61
2022/09/09 11:42:42;;;;;;;1.33;0.93;;;23.40;84.40;;;;;;4970979;28;20984;-60
2022/09/09 11:45:23;;;;;;;1.20;1.10;;;23.40;84.60;;;;;;4969710;28;20472;-59
2022/09/09 11:47:56;;;;;;;2.20;0.93;;;23.40;85.30;;;;;;4969748;28;20448;-60
2022/09/09 11:50:36;;;;;;;1.17;1.07;;;23.40;84.50;;;;;;4969682;28;20811;-60
2022/09/09 11:53:22;;;;;;;1.23;1.13;;;23.40;84.80;;;;;;4969680;28;20812;-60
2022/09/09 11:56:00;;;;;;;0.93;0.93;;;23.40;84.70;;;;;;4969547;28;20476;-60
2022/09/09 11:58:29;;;;;;;3.03;1.30;;;23.40;84.50;;;;;;4969666;28;20534;-61
2022/09/09 12:00:55;;;;;;;2.20;0.87;;;23.40;84.50;;;;;;4969375;28;20462;-60
2022/09/09 12:03:43;;;;;;;2.10;1.33;;;23.40;84.30;;;;;;4969525;28;20566;-59
2022/09/09 12:06:15;;;;;;;0.80;0.80;;;23.40;83.70;;;;;;4969597;28;20913;-60
2022/09/09 12:08:44;;;;;;;1.63;0.80;;;23.40;83.70;;;;;;4969479;28;20448;-61
2022/09/09 12:11:11;;;;;;;1.40;1.13;;;23.40;83.60;;;;;;4969169;28;21002;-61
2022/09/09 12:13:41;;;;;;;1.00;1.00;;;23.40;83.80;;;;;;4969432;28;20443;-61
2022/09/09 12:16:32;;;;;;;1.03;0.80;;;23.40;83.60;;;;;;4969719;28;20471;-57
2022/09/09 12:19:08;;;;;;;1.90;1.10;;;23.40;83.70;;;;;;4969371;28;20529;-61
2022/09/09 12:21:41;;;;;;;1.00;1.00;;;23.40;83.80;;;;;;4969082;28;20944;-60
2022/09/09 12:24:12;;;;;;;0.90;0.90;;;23.40;83.90;;;;;;4969205;28;20488;-59
2022/09/09 12:26:44;;;;;;;3.00;1.20;;;23.50;84.00;;;;;;4969292;28;20447;-61
2022/09/09 12:29:21;;;;;;;1.43;0.90;;;23.40;83.90;;;;;;4969336;28;20479;-61
2022/09/09 12:31:56;;;;;;;1.90;1.20;;;23.40;83.60;;;;;;4971921;28;20450;-60
2022/09/09 12:34:35;;;;;;;2.40;0.97;;;23.40;83.40;;;;;;4972465;28;20443;-59
2022/09/09 12:37:07;;;;;;;0.70;0.70;;;23.40;83.00;;;;;;4972482;28;20538;-59
2022/09/09 12:39:38;;;;;;;1.53;1.43;;;23.40;82.20;;;;;;4972500;28;20542;-60
2022/09/09 12:42:05;;;;;;;2.60;0.87;;;23.40;82.00;;;;;;4972198;28;20540;-61
2022/09/09 12:44:33;;;;;;;1.90;0.93;;;23.40;81.90;;;;;;4972207;28;20578;-60
2022/09/09 12:47:03;;;;;;;1.20;1.10;;;23.40;81.70;;;;;;4972233;28;20459;-60
2022/09/09 12:49:36;;;;;;;2.10;0.90;;;23.40;81.80;;;;;;4972304;28;20835;-60
2022/09/09 12:52:06;;;;;;;1.03;1.00;;;23.40;82.00;;;;;;4972080;28;20444;-59
2022/09/09 12:54:35;;;;;;;0.77;0.77;;;23.40;82.30;;;;;;4972114;28;20475;-60
2022/09/09 12:57:03;;;;;;;1.30;0.80;;;23.40;82.40;;;;;;4972181;28;20450;-62
2022/09/09 12:59:37;;;;;;;1.23;1.00;;;23.40;82.50;;;;;;4972214;28;20476;-62
2022/09/09 13:02:18;;;;;;;1.00;1.00;;;23.40;82.70;;;;;;4972016;28;20938;-60
2022/09/09 13:04:47;;;;;;;1.47;1.10;;;23.40;83.40;;;;;;4971994;28;20494;-61
2022/09/09 13:07:15;;;;;;;0.80;0.80;;;23.40;84.00;;;;;;4972022;28;20452;-59
2022/09/09 13:09:43;;;;;;;1.47;0.90;;;23.40;85.20;;;;;;4972128;28;20833;-60